createdAt,value
2022-12-03T00:02:13.958Z,34.82
2022-12-03T00:05:20.473Z,34.64
2022-12-03T00:08:26.333Z,34.23
2022-12-03T00:11:25.560Z,34.49
2022-12-03T00:14:31.844Z,35.71
2022-12-03T00:17:38.223Z,35.96
2022-12-03T00:20:44.752Z,37.50
2022-12-03T00:23:50.624Z,37.54
2022-12-03T00:26:55.706Z,37.28
2022-12-03T00:30:01.524Z,37.00
2022-12-03T00:33:06.793Z,36.94
2022-12-03T00:36:12.142Z,36.52
2022-12-03T00:39:18.012Z,36.28
2022-12-03T00:42:17.193Z,36.80
2022-12-03T00:45:23.497Z,36.28
2022-12-03T00:48:28.354Z,36.33
2022-12-03T00:51:35.142Z,36.25
2022-12-03T00:54:40.624Z,35.31
2022-12-03T00:57:46.322Z,35.49
2022-12-03T01:00:52.497Z,36.02
2022-12-03T01:03:57.851Z,35.54
2022-12-03T01:07:02.394Z,35.70
2022-12-03T01:10:08.179Z,35.84
2022-12-03T01:13:14.056Z,35.81
2022-12-03T01:16:20.609Z,35.94
2022-12-03T01:19:26.836Z,34.89
2022-12-03T01:22:32.196Z,34.86
2022-12-03T01:25:37.625Z,35.37
2022-12-03T01:28:43.396Z,35.47
2022-12-03T01:32:07.080Z,34.89
2022-12-03T01:35:13.029Z,35.42
2022-12-03T01:38:18.521Z,35.49
2022-12-03T01:41:25.107Z,35.30
2022-12-03T01:44:28.393Z,36.01
2022-12-03T01:47:34.919Z,35.69
2022-12-03T01:50:47.719Z,35.91
2022-12-03T01:53:53.951Z,35.72
2022-12-03T01:56:52.845Z,35.53
2022-12-03T01:59:54.140Z,35.34
2022-12-03T02:03:00.806Z,35.33
2022-12-03T02:06:06.684Z,35.47
2022-12-03T02:09:07.401Z,35.63
2022-12-03T02:12:12.448Z,35.58
2022-12-03T02:15:17.954Z,36.04
2022-12-03T02:18:24.410Z,35.65
2022-12-03T02:21:46.829Z,35.71
2022-12-03T02:25:16.563Z,35.98
2022-12-03T02:28:23.642Z,36.22
2022-12-03T02:31:30.109Z,36.75
2022-12-03T02:34:58.133Z,36.98
2022-12-03T02:38:07.334Z,37.34
2022-12-03T02:41:17.136Z,37.30
2022-12-03T02:44:21.928Z,37.39
2022-12-03T02:47:26.661Z,37.18
2022-12-03T02:50:37.159Z,36.55
2022-12-03T02:53:51.158Z,36.77
2022-12-03T02:56:56.698Z,36.46
2022-12-03T03:00:02.387Z,36.38
2022-12-03T03:03:08.110Z,36.18
2022-12-03T03:06:13.043Z,36.06
2022-12-03T03:09:18.200Z,36.03
2022-12-03T03:12:23.390Z,36.09
2022-12-03T03:15:28.238Z,36.45
2022-12-03T03:18:26.256Z,36.50
2022-12-03T03:21:18.829Z,36.42
2022-12-03T03:24:24.322Z,36.76
2022-12-03T03:27:30.039Z,36.54
2022-12-03T03:30:35.281Z,36.71
2022-12-03T03:33:41.279Z,37.06
2022-12-03T03:36:46.396Z,37.23
2022-12-03T03:39:53.051Z,36.95
2022-12-03T03:42:59.320Z,37.04
2022-12-03T03:46:05.274Z,37.57
2022-12-03T03:49:11.076Z,37.90
2022-12-03T03:52:18.639Z,37.65
2022-12-03T03:55:25.418Z,37.77
2022-12-03T03:58:31.062Z,37.67
2022-12-03T04:01:37.483Z,38.46
2022-12-03T04:04:42.654Z,38.45
2022-12-03T04:07:48.368Z,39.41
2022-12-03T04:11:12.392Z,39.32
2022-12-03T04:14:17.477Z,39.39
2022-12-03T04:17:22.867Z,39.62
2022-12-03T04:20:28.975Z,39.26
2022-12-03T04:23:34.023Z,38.95
2022-12-03T04:26:56.930Z,39.34
2022-12-03T04:30:02.322Z,38.90
2022-12-03T04:33:19.192Z,38.96
2022-12-03T04:36:24.792Z,38.86
2022-12-03T04:39:32.268Z,38.82
2022-12-03T04:42:37.597Z,39.15
2022-12-03T04:45:36.117Z,38.94
2022-12-03T04:48:40.857Z,38.63
2022-12-03T04:51:47.179Z,39.16
2022-12-03T04:54:53.528Z,39.18
2022-12-03T04:57:59.221Z,39.59
2022-12-03T05:01:05.035Z,40.17
2022-12-03T05:04:11.020Z,39.99
2022-12-03T05:07:15.883Z,40.01
2022-12-03T05:10:22.121Z,39.86
2022-12-03T05:13:28.485Z,39.60
2022-12-03T05:16:34.169Z,39.72
2022-12-03T05:19:58.474Z,39.94
2022-12-03T05:23:05.103Z,39.64
2022-12-03T05:26:10.749Z,39.18
2022-12-03T05:29:16.370Z,39.88
2022-12-03T05:32:22.325Z,39.65
2022-12-03T05:35:28.414Z,39.25
2022-12-03T05:38:34.670Z,39.17
2022-12-03T05:41:58.220Z,38.85
2022-12-03T05:45:03.885Z,38.63
2022-12-03T05:48:09.870Z,38.69
2022-12-03T05:51:16.048Z,39.11
2022-12-03T05:54:21.734Z,39.20
2022-12-03T05:57:27.461Z,39.25
2022-12-03T06:00:43.539Z,39.37
2022-12-03T06:03:49.002Z,38.33
2022-12-03T06:06:55.293Z,37.87
2022-12-03T06:10:00.664Z,38.13
2022-12-03T06:13:01.136Z,37.81
2022-12-03T06:16:07.136Z,38.34
2022-12-03T06:19:12.985Z,38.26
2022-12-03T06:22:18.578Z,38.36
2022-12-03T06:25:24.407Z,38.83
2022-12-03T06:28:29.740Z,39.15
2022-12-03T06:31:35.470Z,38.74
2022-12-03T06:34:40.605Z,38.95
2022-12-03T06:37:46.269Z,39.12
2022-12-03T06:40:52.784Z,38.94
2022-12-03T06:43:58.438Z,39.00
2022-12-03T06:47:03.849Z,38.96
2022-12-03T06:50:08.899Z,39.38
2022-12-03T06:53:14.605Z,39.04
2022-12-03T06:56:22.363Z,38.77
2022-12-03T06:59:26.290Z,39.10
2022-12-03T07:02:32.279Z,39.15
2022-12-03T07:05:38.109Z,39.00
2022-12-03T07:08:44.241Z,38.67
2022-12-03T07:11:49.396Z,38.45
2022-12-03T07:14:56.207Z,38.02
2022-12-03T07:18:02.859Z,37.98
2022-12-03T07:21:08.267Z,37.78
2022-12-03T07:24:13.585Z,37.89
2022-12-03T07:27:13.108Z,37.32
2022-12-03T07:30:06.210Z,37.44
2022-12-03T07:33:15.487Z,37.14
2022-12-03T07:36:25.043Z,37.44
2022-12-03T07:39:30.297Z,37.52
2022-12-03T07:42:36.838Z,37.50
2022-12-03T07:45:42.511Z,37.37
2022-12-03T07:48:47.495Z,37.22
2022-12-03T07:51:55.186Z,37.54
2022-12-03T07:55:01.257Z,37.41
2022-12-03T07:58:07.015Z,37.04
2022-12-03T08:01:12.239Z,36.59
2022-12-03T08:04:19.926Z,36.60
2022-12-03T08:07:25.776Z,36.71
2022-12-03T08:10:31.652Z,36.70
2022-12-03T08:13:37.986Z,35.28
2022-12-03T08:16:44.811Z,35.26
2022-12-03T08:19:51.514Z,34.86
2022-12-03T08:22:59.093Z,35.16
2022-12-03T08:26:07.401Z,34.43
2022-12-03T08:29:12.695Z,34.53
2022-12-03T08:32:20.451Z,33.85
2022-12-03T08:35:40.420Z,33.31
2022-12-03T08:38:51.341Z,33.53
2022-12-03T08:42:16.943Z,33.60
2022-12-03T08:49:12.520Z,32.79
2022-12-03T08:52:28.057Z,33.60
2022-12-03T08:55:49.457Z,32.87
2022-12-03T08:59:41.431Z,32.96
2022-12-03T09:02:51.430Z,32.90
2022-12-03T09:05:56.846Z,32.00
2022-12-03T09:09:06.707Z,31.71
2022-12-03T09:12:10.553Z,30.94
2022-12-03T09:15:15.796Z,33.06
2022-12-03T09:18:24.824Z,35.01
2022-12-03T09:21:31.841Z,35.16
2022-12-03T09:24:38.038Z,34.88
2022-12-03T09:27:43.540Z,35.59
2022-12-03T09:30:49.453Z,35.71
2022-12-03T09:33:55.025Z,35.87
2022-12-03T09:37:00.855Z,35.85
2022-12-03T09:40:05.637Z,35.03
2022-12-03T09:43:11.199Z,34.76
2022-12-03T09:46:16.838Z,34.82
2022-12-03T09:49:22.212Z,35.28
2022-12-03T09:52:33.380Z,34.58
2022-12-03T09:55:40.970Z,34.32
2022-12-03T09:58:46.731Z,33.14
2022-12-03T10:01:52.141Z,32.11
2022-12-03T10:04:58.992Z,32.27
2022-12-03T10:08:05.454Z,32.42
2022-12-03T10:11:11.305Z,31.85
2022-12-03T10:14:16.124Z,31.76
2022-12-03T10:17:22.225Z,31.55
2022-12-03T10:20:31.031Z,31.45
2022-12-03T10:23:40.606Z,31.79
2022-12-03T10:30:34.029Z,31.87
2022-12-03T10:33:43.902Z,31.64
2022-12-03T10:36:48.641Z,31.78
2022-12-03T10:40:16.123Z,31.40
2022-12-03T10:43:40.415Z,31.32
2022-12-03T10:46:46.517Z,30.75
2022-12-03T10:49:52.637Z,30.80
2022-12-03T10:52:57.646Z,30.25
2022-12-03T10:56:06.620Z,30.27
2022-12-03T10:59:12.734Z,30.40
2022-12-03T11:02:19.703Z,30.31
2022-12-03T11:05:33.090Z,30.04
2022-12-03T11:08:41.803Z,29.97
2022-12-03T11:11:53.549Z,30.12
2022-12-03T11:15:14.890Z,30.39
2022-12-03T11:18:22.825Z,30.88
2022-12-03T11:25:45.091Z,30.23
2022-12-03T11:28:51.840Z,30.34
2022-12-03T11:32:01.247Z,29.55
2022-12-03T11:35:07.111Z,29.75
2022-12-03T11:38:27.829Z,29.94
2022-12-03T11:41:49.387Z,29.68
2022-12-03T11:48:30.882Z,29.68
2022-12-03T11:51:38.009Z,29.99
2022-12-03T11:55:07.321Z,30.61
2022-12-03T11:58:41.260Z,30.53
2022-12-03T12:01:52.093Z,30.37
2022-12-03T12:04:57.882Z,30.40
2022-12-03T12:08:03.302Z,30.29
2022-12-03T12:11:09.378Z,30.29
2022-12-03T12:14:20.964Z,30.47
2022-12-03T12:17:45.092Z,30.64
2022-12-03T12:20:52.199Z,30.75
2022-12-03T12:23:57.642Z,30.49
2022-12-03T12:31:28.267Z,30.07
2022-12-03T12:34:35.924Z,30.69
2022-12-03T12:38:00.222Z,31.23
2022-12-03T12:41:11.777Z,31.83
2022-12-03T12:44:17.230Z,32.08
2022-12-03T12:47:24.954Z,32.01
2022-12-03T12:50:32.930Z,32.43
2022-12-03T12:53:50.937Z,32.83
2022-12-03T12:57:02.096Z,33.46
2022-12-03T13:00:07.783Z,33.20
2022-12-03T13:03:17.704Z,32.74
2022-12-03T13:06:28.465Z,32.72
2022-12-03T13:09:40.354Z,32.84
2022-12-03T13:12:45.793Z,32.58
2022-12-03T13:16:11.493Z,31.83
2022-12-03T13:19:27.885Z,31.28
2022-12-03T13:22:48.731Z,29.56
2022-12-03T13:26:12.954Z,32.09
2022-12-03T13:29:21.691Z,31.87
2022-12-03T13:32:34.289Z,31.67
2022-12-03T13:36:05.465Z,30.80
2022-12-03T13:39:11.769Z,30.29
2022-12-03T13:42:52.830Z,29.48
2022-12-03T13:46:03.058Z,30.31
2022-12-03T13:49:08.487Z,31.09
2022-12-03T13:52:14.746Z,30.54
2022-12-03T13:55:21.356Z,30.66
2022-12-03T13:58:26.335Z,31.49
2022-12-03T14:01:32.521Z,31.77
2022-12-03T14:05:00.725Z,31.13
2022-12-03T14:08:08.128Z,31.04
2022-12-03T14:11:13.798Z,30.97
2022-12-03T14:14:19.155Z,30.85
2022-12-03T14:17:37.878Z,30.50
2022-12-03T14:21:05.163Z,30.64
2022-12-03T14:24:10.331Z,30.33
2022-12-03T14:27:18.166Z,30.81
2022-12-03T14:30:24.390Z,30.54
2022-12-03T14:33:35.061Z,29.96
2022-12-03T14:36:41.257Z,30.10
2022-12-03T14:39:56.729Z,31.95
2022-12-03T14:43:08.009Z,32.52
2022-12-03T14:46:31.912Z,33.31
2022-12-03T14:49:36.636Z,33.43
2022-12-03T14:52:51.421Z,33.93
2022-12-03T14:56:06.899Z,33.91
2022-12-03T14:59:13.970Z,34.11
2022-12-03T15:02:39.631Z,34.43
2022-12-03T15:06:01.475Z,34.45
2022-12-03T15:09:07.359Z,34.43
2022-12-03T15:12:19.040Z,33.93
2022-12-03T15:15:26.907Z,34.50
2022-12-03T15:18:37.978Z,34.45
2022-12-03T15:22:01.110Z,33.78
2022-12-03T15:25:08.989Z,33.35
2022-12-03T15:28:15.892Z,33.88
2022-12-03T15:31:21.862Z,33.63
2022-12-03T15:34:51.956Z,33.73
2022-12-03T15:41:31.193Z,33.39
2022-12-03T15:44:38.063Z,33.59
2022-12-03T15:47:43.123Z,33.63
2022-12-03T15:50:48.473Z,33.25
2022-12-03T15:53:55.704Z,32.82
2022-12-03T16:00:31.898Z,35.01
2022-12-03T16:04:05.294Z,35.88
2022-12-03T16:07:12.186Z,35.47
2022-12-03T16:10:18.989Z,35.87
2022-12-03T16:13:46.971Z,36.09
2022-12-03T16:20:47.775Z,36.00
2022-12-03T16:24:04.545Z,35.61
2022-12-03T16:27:19.563Z,35.21
2022-12-03T16:33:59.508Z,35.76
2022-12-03T16:37:11.436Z,35.62
2022-12-03T16:40:33.619Z,35.59
2022-12-03T16:43:48.399Z,36.14
2022-12-03T16:51:07.439Z,36.72
2022-12-03T16:54:13.626Z,36.70
2022-12-03T16:57:20.724Z,36.48
2022-12-03T17:00:28.156Z,37.24
2022-12-03T17:03:34.243Z,37.74
2022-12-03T17:06:40.142Z,37.81
2022-12-03T17:09:47.834Z,37.58
2022-12-03T17:13:09.257Z,37.68
2022-12-03T17:16:01.984Z,37.59
2022-12-03T17:19:08.135Z,37.83
2022-12-03T17:22:14.299Z,37.33
2022-12-03T17:25:20.263Z,37.70
2022-12-03T17:28:24.786Z,37.53
2022-12-03T17:31:24.346Z,37.38
2022-12-03T17:34:29.706Z,37.43
2022-12-03T17:37:35.486Z,37.78
2022-12-03T17:40:41.657Z,37.80
2022-12-03T17:43:47.648Z,36.84
2022-12-03T17:46:53.128Z,37.03
2022-12-03T17:49:52.892Z,36.89
2022-12-03T17:52:45.462Z,36.43
2022-12-03T17:55:53.652Z,36.18
2022-12-03T17:58:52.331Z,36.11
2022-12-03T18:01:59.928Z,36.41
2022-12-03T18:05:05.752Z,36.31
2022-12-03T18:08:12.175Z,36.59
2022-12-03T18:11:16.919Z,36.52
2022-12-03T18:14:22.954Z,36.98
2022-12-03T18:17:28.056Z,36.60
2022-12-03T18:20:33.114Z,36.47
2022-12-03T18:23:38.224Z,37.18
2022-12-03T18:26:44.120Z,36.65
2022-12-03T18:29:49.812Z,36.23
2022-12-03T18:32:56.122Z,36.52
2022-12-03T18:36:01.078Z,36.34
2022-12-03T18:39:08.178Z,36.74
2022-12-03T18:42:13.595Z,36.75
2022-12-03T18:45:21.631Z,36.07
2022-12-03T18:48:30.099Z,36.43
2022-12-03T18:51:37.566Z,37.51
2022-12-03T18:54:43.357Z,37.26
2022-12-03T18:57:48.304Z,37.23
2022-12-03T19:00:53.311Z,37.92
2022-12-03T19:03:58.583Z,37.72
2022-12-03T19:07:04.316Z,37.58
2022-12-03T19:10:09.950Z,37.24
2022-12-03T19:13:16.677Z,37.00
2022-12-03T19:16:24.359Z,37.27
2022-12-03T19:19:32.930Z,38.12
2022-12-03T19:22:38.211Z,38.53
2022-12-03T19:25:43.904Z,37.72
2022-12-03T19:28:50.507Z,37.76
2022-12-03T19:31:56.826Z,38.50
2022-12-03T19:35:03.715Z,37.79
2022-12-03T19:38:10.104Z,38.10
2022-12-03T19:41:21.142Z,37.84
2022-12-03T19:44:28.934Z,37.38
2022-12-03T19:47:33.709Z,37.28
2022-12-03T19:50:39.304Z,37.70
2022-12-03T19:53:46.471Z,38.05
2022-12-03T19:56:53.513Z,38.03
2022-12-03T19:59:52.888Z,38.36
2022-12-03T20:02:59.600Z,37.38
2022-12-03T20:06:05.464Z,37.33
2022-12-03T20:09:17.687Z,37.89
2022-12-03T20:12:23.176Z,38.13
2022-12-03T20:15:28.919Z,37.66
2022-12-03T20:18:34.558Z,37.60
2022-12-03T20:21:40.311Z,37.19
2022-12-03T20:24:45.766Z,36.67
2022-12-03T20:27:50.869Z,36.95
2022-12-03T20:30:55.636Z,36.52
2022-12-03T20:34:04.552Z,36.60
2022-12-03T20:37:10.124Z,36.88
2022-12-03T20:40:16.140Z,36.91
2022-12-03T20:43:22.172Z,37.06
2022-12-03T20:46:38.214Z,37.21
2022-12-03T20:49:45.917Z,37.66
2022-12-03T20:53:16.319Z,37.51
2022-12-03T20:55:59.023Z,36.88
2022-12-03T20:59:04.762Z,37.00
2022-12-03T21:02:11.791Z,36.77
2022-12-03T21:05:17.031Z,36.63
2022-12-03T21:08:27.913Z,36.31
2022-12-03T21:11:28.567Z,36.30
2022-12-03T21:14:34.480Z,36.49
2022-12-03T21:17:39.957Z,35.77
2022-12-03T21:20:45.996Z,35.40
2022-12-03T21:23:50.848Z,35.93
2022-12-03T21:26:57.237Z,36.01
2022-12-03T21:30:02.830Z,35.99
2022-12-03T21:33:08.559Z,36.23
2022-12-03T21:36:14.728Z,35.76
2022-12-03T21:39:20.466Z,35.92
2022-12-03T21:42:35.918Z,35.98
2022-12-03T21:45:33.293Z,36.10
2022-12-03T21:48:39.040Z,36.00
2022-12-03T21:51:45.449Z,35.60
2022-12-03T21:54:51.644Z,35.79
2022-12-03T21:57:56.881Z,36.07
2022-12-03T22:01:03.320Z,36.13
2022-12-03T22:04:03.189Z,35.89
2022-12-03T22:07:09.351Z,35.88
2022-12-03T22:10:15.623Z,36.55
2022-12-03T22:13:22.217Z,35.86
2022-12-03T22:16:32.321Z,35.98
2022-12-03T22:19:37.500Z,35.91
2022-12-03T22:22:43.186Z,35.60
2022-12-03T22:25:48.729Z,35.79
